sensor_id;sensor_type;location;lat;lon;timestamp;pressure;altitude;pressure_sealevel;temperature;humidity
5651;BME280;40241;52.684;9.758;2024-03-23T00:56:04;100613.25;;;8.49;64.10
5651;BME280;40241;52.684;9.758;2024-03-23T00:58:30;100614.72;;;8.50;64.16
5651;BME280;40241;52.684;9.758;2024-03-23T01:00:55;100608.47;;;8.49;64.20
5651;BME280;40241;52.684;9.758;2024-03-23T01:03:20;100597.94;;;8.48;64.02
5651;BME280;40241;52.684;9.758;2024-03-23T01:05:46;100597.69;;;8.46;64.02
5651;BME280;40241;52.684;9.758;2024-03-23T01:08:11;100598.22;;;8.44;64.13
5651;BME280;40241;52.684;9.758;2024-03-23T01:10:36;100593.94;;;8.43;64.06
5651;BME280;40241;52.684;9.758;2024-03-23T01:13:02;100595.44;;;8.44;64.27
5651;BME280;40241;52.684;9.758;2024-03-23T01:15:27;100588.94;;;8.42;63.94
5651;BME280;40241;52.684;9.758;2024-03-23T01:17:53;100588.16;;;8.41;63.94
5651;BME280;40241;52.684;9.758;2024-03-23T01:20:18;100584.66;;;8.41;64.00
5651;BME280;40241;52.684;9.758;2024-03-23T01:22:43;100566.63;;;8.40;64.09
5651;BME280;40241;52.684;9.758;2024-03-23T01:25:09;100559.34;;;8.37;64.13
5651;BME280;40241;52.684;9.758;2024-03-23T01:27:34;100563.38;;;8.36;63.92
5651;BME280;40241;52.684;9.758;2024-03-23T01:29:59;100563.38;;;8.36;63.91
5651;BME280;40241;52.684;9.758;2024-03-23T01:32:25;100563.88;;;8.34;63.84
5651;BME280;40241;52.684;9.758;2024-03-23T01:34:50;100574.88;;;8.34;64.08
5651;BME280;40241;52.684;9.758;2024-03-23T01:37:15;100563.88;;;8.34;64.08
5651;BME280;40241;52.684;9.758;2024-03-23T01:39:41;100565.13;;;8.33;64.08
5651;BME280;40241;52.684;9.758;2024-03-23T01:42:06;100558.63;;;8.31;64.20
5651;BME280;40241;52.684;9.758;2024-03-23T01:44:31;100548.09;;;8.29;64.01
5651;BME280;40241;52.684;9.758;2024-03-23T01:46:56;100541.06;;;8.28;64.07
5651;BME280;40241;52.684;9.758;2024-03-23T01:49:22;100537.56;;;8.28;63.92
5651;BME280;40241;52.684;9.758;2024-03-23T01:51:47;100535.56;;;8.28;64.18
5651;BME280;40241;52.684;9.758;2024-03-23T01:54:13;100528.53;;;8.27;64.08
5651;BME280;40241;52.684;9.758;2024-03-23T01:56:38;100528.06;;;8.29;64.01
5651;BME280;40241;52.684;9.758;2024-03-23T01:59:04;100530.28;;;8.30;64.08
5651;BME280;40241;52.684;9.758;2024-03-23T02:01:30;100528.81;;;8.29;63.99
5651;BME280;40241;52.684;9.758;2024-03-23T02:03:56;100531.56;;;8.24;63.93
5651;BME280;40241;52.684;9.758;2024-03-23T02:06:22;100530.06;;;8.23;63.87
5651;BME280;40241;52.684;9.758;2024-03-23T02:08:48;100529.31;;;8.22;64.10
5651;BME280;40241;52.684;9.758;2024-03-23T02:11:13;100523.03;;;8.22;64.02
5651;BME280;40241;52.684;9.758;2024-03-23T02:13:39;100516.28;;;8.17;63.84
5651;BME280;40241;52.684;9.758;2024-03-23T02:16:05;100520.28;;;8.16;63.97
5651;BME280;40241;52.684;9.758;2024-03-23T02:18:31;100506.22;;;8.14;63.97
5651;BME280;40241;52.684;9.758;2024-03-23T02:20:57;100503.97;;;8.13;64.20
5651;BME280;40241;52.684;9.758;2024-03-23T02:23:22;100508.25;;;8.14;64.12
5651;BME280;40241;52.684;9.758;2024-03-23T02:25:49;100514.00;;;8.16;64.18
5651;BME280;40241;52.684;9.758;2024-03-23T02:28:14;100517.03;;;8.18;64.14
5651;BME280;40241;52.684;9.758;2024-03-23T02:30:40;100508.00;;;8.17;64.13
5651;BME280;40241;52.684;9.758;2024-03-23T02:33:05;100499.00;;;8.17;64.10
5651;BME280;40241;52.684;9.758;2024-03-23T02:35:30;100492.72;;;8.16;64.04
5651;BME280;40241;52.684;9.758;2024-03-23T02:37:56;100486.94;;;8.14;64.13
5651;BME280;40241;52.684;9.758;2024-03-23T02:40:23;100479.44;;;8.15;64.08
5651;BME280;40241;52.684;9.758;2024-03-23T02:42:48;100486.69;;;8.12;63.93
5651;BME280;40241;52.684;9.758;2024-03-23T02:45:14;100484.19;;;8.14;64.05
5651;BME280;40241;52.684;9.758;2024-03-23T02:47:39;100480.69;;;8.14;64.15
5651;BME280;40241;52.684;9.758;2024-03-23T02:50:05;100477.44;;;8.15;64.14
5651;BME280;40241;52.684;9.758;2024-03-23T02:52:30;100467.66;;;8.14;64.18
5651;BME280;40241;52.684;9.758;2024-03-23T02:54:56;100462.13;;;8.14;64.04
5651;BME280;40241;52.684;9.758;2024-03-23T02:57:21;100467.66;;;8.14;63.97
5651;BME280;40241;52.684;9.758;2024-03-23T02:59:47;100456.91;;;8.11;64.07
5651;BME280;40241;52.684;9.758;2024-03-23T03:02:13;100467.91;;;8.11;64.23
5651;BME280;40241;52.684;9.758;2024-03-23T03:04:38;100464.66;;;8.12;64.21
5651;BME280;40241;52.684;9.758;2024-03-23T03:07:04;100459.66;;;8.11;64.04
5651;BME280;40241;52.684;9.758;2024-03-23T03:09:29;100458.41;;;8.12;64.28
5651;BME280;40241;52.684;9.758;2024-03-23T03:11:55;100455.66;;;8.12;63.98
5651;BME280;40241;52.684;9.758;2024-03-23T03:14:20;100459.13;;;8.12;64.24
5651;BME280;40241;52.684;9.758;2024-03-23T03:16:45;100456.38;;;8.12;64.06
5651;BME280;40241;52.684;9.758;2024-03-23T03:19:11;100449.63;;;8.13;64.19
5651;BME280;40241;52.684;9.758;2024-03-23T03:21:36;100459.13;;;8.12;64.12
5651;BME280;40241;52.684;9.758;2024-03-23T03:24:02;100470.16;;;8.12;64.12
5651;BME280;40241;52.684;9.758;2024-03-23T03:26:28;100467.41;;;8.12;64.07
5651;BME280;40241;52.684;9.758;2024-03-23T03:28:53;100457.66;;;8.11;64.20
5651;BME280;40241;52.684;9.758;2024-03-23T03:31:19;100461.16;;;8.12;63.99
5651;BME280;40241;52.684;9.758;2024-03-23T03:33:44;100461.88;;;8.12;64.18
5651;BME280;40241;52.684;9.758;2024-03-23T03:36:10;100445.88;;;8.11;63.98
5651;BME280;40241;52.684;9.758;2024-03-23T03:38:36;100460.66;;;8.08;64.02
5651;BME280;40241;52.684;9.758;2024-03-23T03:41:02;100444.38;;;8.04;64.15
5651;BME280;40241;52.684;9.758;2024-03-23T03:43:27;100451.88;;;8.04;64.16
5651;BME280;40241;52.684;9.758;2024-03-23T03:45:54;100454.88;;;8.06;64.22
5651;BME280;40241;52.684;9.758;2024-03-23T03:48:19;100455.66;;;8.06;64.14
5651;BME280;40241;52.684;9.758;2024-03-23T03:50:45;100450.13;;;8.06;64.28
5651;BME280;40241;52.684;9.758;2024-03-23T03:53:10;100448.13;;;8.07;64.22
5651;BME280;40241;52.684;9.758;2024-03-23T03:55:36;100451.66;;;8.07;64.23
5651;BME280;40241;52.684;9.758;2024-03-23T03:58:02;100447.91;;;8.05;64.28
5651;BME280;40241;52.684;9.758;2024-03-23T04:00:27;100440.88;;;8.04;64.25
5651;BME280;40241;52.684;9.758;2024-03-23T04:02:52;100436.38;;;8.01;63.96
5651;BME280;40241;52.684;9.758;2024-03-23T04:05:17;100430.88;;;8.01;64.12
5651;BME280;40241;52.684;9.758;2024-03-23T04:07:44;100413.59;;;8.00;63.97
5651;BME280;40241;52.684;9.758;2024-03-23T04:10:09;100425.84;;;7.99;64.19
5651;BME280;40241;52.684;9.758;2024-03-23T04:12:35;100423.59;;;7.98;64.28
5651;BME280;40241;52.684;9.758;2024-03-23T04:15:00;100429.88;;;7.98;64.24
5651;BME280;40241;52.684;9.758;2024-03-23T04:17:28;100421.59;;;7.98;64.16
5651;BME280;40241;52.684;9.758;2024-03-23T04:19:57;100408.31;;;7.97;64.25
5651;BME280;40241;52.684;9.758;2024-03-23T04:22:22;100415.09;;;7.96;64.28
5651;BME280;40241;52.684;9.758;2024-03-23T04:24:49;100417.09;;;7.95;64.15
5651;BME280;40241;52.684;9.758;2024-03-23T04:27:15;100407.59;;;7.96;64.21
5651;BME280;40241;52.684;9.758;2024-03-23T04:29:40;100403.31;;;7.95;64.26
5651;BME280;40241;52.684;9.758;2024-03-23T04:32:06;100397.81;;;7.95;64.04
5651;BME280;40241;52.684;9.758;2024-03-23T04:34:31;100399.09;;;7.94;64.12
5651;BME280;40241;52.684;9.758;2024-03-23T04:36:58;100407.84;;;7.93;64.14
5651;BME280;40241;52.684;9.758;2024-03-23T04:39:23;100411.09;;;7.91;64.15
5651;BME280;40241;52.684;9.758;2024-03-23T04:41:49;100405.59;;;7.91;64.11
5651;BME280;40241;52.684;9.758;2024-03-23T04:44:15;100409.59;;;7.90;64.11
5651;BME280;40241;52.684;9.758;2024-03-23T04:46:40;100404.59;;;7.89;64.18
5651;BME280;40241;52.684;9.758;2024-03-23T04:49:06;100408.84;;;7.90;64.32
5651;BME280;40241;52.684;9.758;2024-03-23T04:51:35;100419.88;;;7.90;64.20
5651;BME280;40241;52.684;9.758;2024-03-23T04:54:02;100427.13;;;7.87;64.21
5651;BME280;40241;52.684;9.758;2024-03-23T04:56:27;100415.13;;;7.85;64.07
5651;BME280;40241;52.684;9.758;2024-03-23T04:58:53;100410.13;;;7.83;64.24
5651;BME280;40241;52.684;9.758;2024-03-23T05:01:19;100400.84;;;7.80;64.16
5651;BME280;40241;52.684;9.758;2024-03-23T05:03:44;100408.13;;;7.78;64.04
5651;BME280;40241;52.684;9.758;2024-03-23T05:06:10;100414.88;;;7.77;64.01
5651;BME280;40241;52.684;9.758;2024-03-23T05:08:35;100404.13;;;7.73;63.94
5651;BME280;40241;52.684;9.758;2024-03-23T05:11:00;100402.63;;;7.72;63.95
5651;BME280;40241;52.684;9.758;2024-03-23T05:13:25;100396.13;;;7.70;64.01
5651;BME280;40241;52.684;9.758;2024-03-23T05:15:54;100380.84;;;7.69;63.97
5651;BME280;40241;52.684;9.758;2024-03-23T05:18:20;100377.59;;;7.65;63.98
5651;BME280;40241;52.684;9.758;2024-03-23T05:20:46;100376.59;;;7.62;63.78
5651;BME280;40241;52.684;9.758;2024-03-23T05:23:11;100378.34;;;7.60;63.78
5651;BME280;40241;52.684;9.758;2024-03-23T05:25:36;100382.84;;;7.57;63.87
5651;BME280;40241;52.684;9.758;2024-03-23T05:28:02;100373.63;;;7.55;63.81
5651;BME280;40241;52.684;9.758;2024-03-23T05:30:27;100359.09;;;7.54;63.81
5651;BME280;40241;52.684;9.758;2024-03-23T05:32:53;100364.34;;;7.52;63.68
5651;BME280;40241;52.684;9.758;2024-03-23T05:35:19;100372.38;;;7.50;63.86
5651;BME280;40241;52.684;9.758;2024-03-23T05:37:44;100386.59;;;7.49;64.09
5651;BME280;40241;52.684;9.758;2024-03-23T05:40:10;100356.84;;;7.47;63.95
5651;BME280;40241;52.684;9.758;2024-03-23T05:42:35;100360.84;;;7.46;63.74
5651;BME280;40241;52.684;9.758;2024-03-23T05:45:01;100364.09;;;7.45;63.80
5651;BME280;40241;52.684;9.758;2024-03-23T05:47:26;100366.84;;;7.45;64.09
5651;BME280;40241;52.684;9.758;2024-03-23T05:49:51;100364.84;;;7.45;64.04
5651;BME280;40241;52.684;9.758;2024-03-23T05:52:17;100360.09;;;7.46;63.78
5651;BME280;40241;52.684;9.758;2024-03-23T05:54:42;100349.56;;;7.44;63.79
5651;BME280;40241;52.684;9.758;2024-03-23T05:57:09;100354.34;;;7.44;63.66
5651;BME280;40241;52.684;9.758;2024-03-23T05:59:34;100347.84;;;7.41;63.80
5651;BME280;40241;52.684;9.758;2024-03-23T06:02:00;100353.34;;;7.41;63.61
5651;BME280;40241;52.684;9.758;2024-03-23T06:04:25;100342.09;;;7.39;63.65
5651;BME280;40241;52.684;9.758;2024-03-23T06:06:53;100344.84;;;7.39;63.84
5651;BME280;40241;52.684;9.758;2024-03-23T06:09:18;100341.59;;;7.41;63.94
5651;BME280;40241;52.684;9.758;2024-03-23T06:11:48;100340.59;;;7.44;63.95
5651;BME280;40241;52.684;9.758;2024-03-23T06:14:13;100347.81;;;7.47;64.01
5651;BME280;40241;52.684;9.758;2024-03-23T06:16:39;100346.06;;;7.49;63.97
5651;BME280;40241;52.684;9.758;2024-03-23T06:19:04;100351.81;;;7.51;63.94
5651;BME280;40241;52.684;9.758;2024-03-23T06:21:32;100350.06;;;7.54;63.95
5651;BME280;40241;52.684;9.758;2024-03-23T06:23:57;100354.84;;;7.59;63.80
5651;BME280;40241;52.684;9.758;2024-03-23T06:26:23;100352.84;;;7.59;63.88
5651;BME280;40241;52.684;9.758;2024-03-23T06:28:48;100357.31;;;7.62;63.92
5651;BME280;40241;52.684;9.758;2024-03-23T06:31:14;100354.31;;;7.66;63.86
5651;BME280;40241;52.684;9.758;2024-03-23T06:33:39;100357.31;;;7.68;63.72
5651;BME280;40241;52.684;9.758;2024-03-23T06:36:09;100350.56;;;7.69;63.77
5651;BME280;40241;52.684;9.758;2024-03-23T06:38:34;100348.03;;;7.71;63.85
5651;BME280;40241;52.684;9.758;2024-03-23T06:41:02;100344.06;;;7.72;63.87
5651;BME280;40241;52.684;9.758;2024-03-23T06:43:28;100347.56;;;7.72;63.82
5651;BME280;40241;52.684;9.758;2024-03-23T06:45:54;100349.28;;;7.75;63.73
5651;BME280;40241;52.684;9.758;2024-03-23T06:48:19;100338.03;;;7.79;63.75
5651;BME280;40241;52.684;9.758;2024-03-23T06:50:45;100345.25;;;7.82;63.83
5651;BME280;40241;52.684;9.758;2024-03-23T06:53:12;100344.03;;;7.83;63.78
5651;BME280;40241;52.684;9.758;2024-03-23T06:55:37;100352.53;;;7.85;63.78
5651;BME280;40241;52.684;9.758;2024-03-23T06:58:02;100361.56;;;7.86;63.60
5651;BME280;40241;52.684;9.758;2024-03-23T07:00:28;100358.28;;;7.87;63.76
5651;BME280;40241;52.684;9.758;2024-03-23T07:02:53;100354.50;;;7.90;63.50
5651;BME280;40241;52.684;9.758;2024-03-23T07:05:18;100349.50;;;7.94;63.91
5651;BME280;40241;52.684;9.758;2024-03-23T07:07:44;100343.44;;;8.01;63.72
5651;BME280;40241;52.684;9.758;2024-03-23T07:10:09;100346.97;;;8.07;63.78
5651;BME280;40241;52.684;9.758;2024-03-23T07:12:34;100340.41;;;8.10;63.49
5651;BME280;40241;52.684;9.758;2024-03-23T07:15:00;100345.16;;;8.15;63.74
5651;BME280;40241;52.684;9.758;2024-03-23T07:17:25;100338.41;;;8.16;63.43
5651;BME280;40241;52.684;9.758;2024-03-23T07:19:50;100348.91;;;8.23;63.58
5651;BME280;40241;52.684;9.758;2024-03-23T07:22:16;100349.41;;;8.27;63.60
5651;BME280;40241;52.684;9.758;2024-03-23T07:24:41;100350.63;;;8.32;63.58
5651;BME280;40241;52.684;9.758;2024-03-23T07:27:06;100340.09;;;8.36;63.35
5651;BME280;40241;52.684;9.758;2024-03-23T07:29:35;100346.84;;;8.40;63.57
5651;BME280;40241;52.684;9.758;2024-03-23T07:32:00;100340.81;;;8.42;63.39
5651;BME280;40241;52.684;9.758;2024-03-23T07:34:26;100347.81;;;8.43;63.26
5651;BME280;40241;52.684;9.758;2024-03-23T07:36:51;100351.81;;;8.47;63.51
5651;BME280;40241;52.684;9.758;2024-03-23T07:39:16;100345.81;;;8.49;63.44
5651;BME280;40241;52.684;9.758;2024-03-23T07:41:44;100345.06;;;8.48;63.29
5651;BME280;40241;52.684;9.758;2024-03-23T07:44:10;100354.31;;;8.51;63.20
5651;BME280;40241;52.684;9.758;2024-03-23T07:46:36;100352.28;;;8.51;63.25
5651;BME280;40241;52.684;9.758;2024-03-23T07:49:01;100352.28;;;8.51;63.15
5651;BME280;40241;52.684;9.758;2024-03-23T07:51:26;100350.81;;;8.50;63.38
5651;BME280;40241;52.684;9.758;2024-03-23T07:53:52;100358.31;;;8.50;63.29
5651;BME280;40241;52.684;9.758;2024-03-23T07:56:18;100365.09;;;8.49;63.30
5651;BME280;40241;52.684;9.758;2024-03-23T07:58:45;100361.84;;;8.50;63.39
5651;BME280;40241;52.684;9.758;2024-03-23T08:01:14;100352.81;;;8.50;63.25
5651;BME280;40241;52.684;9.758;2024-03-23T08:03:41;100352.06;;;8.49;63.36
5651;BME280;40241;52.684;9.758;2024-03-23T08:06:09;100351.81;;;8.47;62.98
5651;BME280;40241;52.684;9.758;2024-03-23T08:08:34;100344.31;;;8.48;63.18
5651;BME280;40241;52.684;9.758;2024-03-23T08:11:00;100340.28;;;8.49;63.18
5651;BME280;40241;52.684;9.758;2024-03-23T08:13:26;100343.75;;;8.55;63.53
5651;BME280;40241;52.684;9.758;2024-03-23T08:15:52;100336.22;;;8.61;63.30
5651;BME280;40241;52.684;9.758;2024-03-23T08:18:17;100328.41;;;8.65;63.39
5651;BME280;40241;52.684;9.758;2024-03-23T08:20:42;100332.16;;;8.68;63.34
5651;BME280;40241;52.684;9.758;2024-03-23T08:23:08;100336.91;;;8.73;63.15
5651;BME280;40241;52.684;9.758;2024-03-23T08:25:34;100335.84;;;8.76;63.10
5651;BME280;40241;52.684;9.758;2024-03-23T08:27:59;100341.81;;;8.85;63.16
5651;BME280;40241;52.684;9.758;2024-03-23T08:30:25;100336.03;;;8.89;63.01
5651;BME280;40241;52.684;9.758;2024-03-23T08:32:51;100336.00;;;8.94;62.86
5651;BME280;40241;52.684;9.758;2024-03-23T08:35:16;100340.13;;;9.12;63.07
5651;BME280;40241;52.684;9.758;2024-03-23T08:37:42;100337.75;;;9.27;62.70
5651;BME280;40241;52.684;9.758;2024-03-23T08:40:08;100351.00;;;9.34;62.23
5651;BME280;40241;52.684;9.758;2024-03-23T08:42:34;100353.47;;;9.38;62.23
5651;BME280;40241;52.684;9.758;2024-03-23T08:44:59;100350.09;;;9.50;61.96
5651;BME280;40241;52.684;9.758;2024-03-23T08:47:24;100347.22;;;9.67;61.82
5651;BME280;40241;52.684;9.758;2024-03-23T08:49:50;100346.72;;;9.87;61.97
5651;BME280;40241;52.684;9.758;2024-03-23T08:52:15;100352.59;;;10.02;61.44
5651;BME280;40241;52.684;9.758;2024-03-23T08:54:40;100351.16;;;9.95;60.87
5651;BME280;40241;52.684;9.758;2024-03-23T08:57:05;100349.50;;;9.87;60.80
5651;BME280;40241;52.684;9.758;2024-03-23T08:59:32;100357.97;;;9.94;61.43
5651;BME280;40241;52.684;9.758;2024-03-23T09:01:57;100350.31;;;10.25;61.19
5651;BME280;40241;52.684;9.758;2024-03-23T09:04:23;100354.53;;;10.50;60.69
5651;BME280;40241;52.684;9.758;2024-03-23T09:06:49;100357.91;;;10.80;60.54
5651;BME280;40241;52.684;9.758;2024-03-23T09:09:15;100353.59;;;11.16;60.24
5651;BME280;40241;52.684;9.758;2024-03-23T09:11:40;100346.06;;;11.30;59.61
5651;BME280;40241;52.684;9.758;2024-03-23T09:14:05;100344.94;;;11.51;59.75
5651;BME280;40241;52.684;9.758;2024-03-23T09:16:31;100345.06;;;11.46;59.10
5651;BME280;40241;52.684;9.758;2024-03-23T09:18:56;100344.13;;;11.25;59.16
5651;BME280;40241;52.684;9.758;2024-03-23T09:21:21;100350.34;;;10.99;59.08
5651;BME280;40241;52.684;9.758;2024-03-23T09:23:46;100346.22;;;10.68;59.08
5651;BME280;40241;52.684;9.758;2024-03-23T09:26:12;100344.06;;;10.43;59.22
5651;BME280;40241;52.684;9.758;2024-03-23T09:28:38;100338.06;;;10.20;59.46
5651;BME280;40241;52.684;9.758;2024-03-23T09:31:07;100345.06;;;10.02;59.65
5651;BME280;40241;52.684;9.758;2024-03-23T09:33:33;100334.72;;;9.84;59.52
5651;BME280;40241;52.684;9.758;2024-03-23T09:36:06;100338.56;;;9.76;59.47
5651;BME280;40241;52.684;9.758;2024-03-23T09:38:32;100341.84;;;9.74;59.77
5651;BME280;40241;52.684;9.758;2024-03-23T09:40:58;100334.84;;;9.73;59.49
5651;BME280;40241;52.684;9.758;2024-03-23T09:43:24;100338.91;;;9.67;59.65
5651;BME280;40241;52.684;9.758;2024-03-23T09:45:49;100336.66;;;9.89;59.69
5651;BME280;40241;52.684;9.758;2024-03-23T09:48:15;100334.75;;;10.03;59.11
5651;BME280;40241;52.684;9.758;2024-03-23T09:50:42;100336.25;;;10.04;58.76
5651;BME280;40241;52.684;9.758;2024-03-23T09:53:09;100325.94;;;10.04;58.79
5651;BME280;40241;52.684;9.758;2024-03-23T09:55:35;100321.31;;;10.13;58.73
5651;BME280;40241;52.684;9.758;2024-03-23T09:58:01;100320.44;;;10.42;58.47
5651;BME280;40241;52.684;9.758;2024-03-23T10:00:27;100320.44;;;10.60;57.99
5651;BME280;40241;52.684;9.758;2024-03-23T10:02:55;100327.31;;;10.54;57.61
5651;BME280;40241;52.684;9.758;2024-03-23T10:05:21;100321.41;;;10.44;57.45
5651;BME280;40241;52.684;9.758;2024-03-23T10:07:52;100313.66;;;10.43;57.79
5651;BME280;40241;52.684;9.758;2024-03-23T10:10:18;100317.75;;;10.55;57.61
5651;BME280;40241;52.684;9.758;2024-03-23T10:12:48;100321.75;;;10.72;56.96
5651;BME280;40241;52.684;9.758;2024-03-23T10:15:20;100319.22;;;10.93;56.53
5651;BME280;40241;52.684;9.758;2024-03-23T10:17:46;100318.75;;;11.08;56.65
5651;BME280;40241;52.684;9.758;2024-03-23T10:20:12;100307.91;;;11.23;56.21
5651;BME280;40241;52.684;9.758;2024-03-23T10:22:38;100314.22;;;11.36;56.06
5651;BME280;40241;52.684;9.758;2024-03-23T10:25:10;100317.66;;;11.42;55.25
5651;BME280;40241;52.684;9.758;2024-03-23T10:27:36;100320.59;;;11.31;55.24
5651;BME280;40241;52.684;9.758;2024-03-23T10:30:12;100329.56;;;11.37;54.11
5651;BME280;40241;52.684;9.758;2024-03-23T10:32:38;100321.25;;;11.37;54.95
5651;BME280;40241;52.684;9.758;2024-03-23T10:35:24;100374.69;;;11.19;53.57
5651;BME280;40241;52.684;9.758;2024-03-23T10:37:51;100376.28;;;10.77;54.53
5651;BME280;40241;52.684;9.758;2024-03-23T10:40:17;100403.38;;;10.23;54.91
5651;BME280;40241;52.684;9.758;2024-03-23T10:42:43;100410.56;;;9.83;55.05
5651;BME280;40241;52.684;9.758;2024-03-23T10:45:09;100406.34;;;9.47;55.49
5651;BME280;40241;52.684;9.758;2024-03-23T10:47:36;100421.09;;;9.20;56.12
5651;BME280;40241;52.684;9.758;2024-03-23T10:50:05;100414.78;;;8.90;55.96
5651;BME280;40241;52.684;9.758;2024-03-23T10:52:34;100413.13;;;8.65;56.34
5651;BME280;40241;52.684;9.758;2024-03-23T10:55:05;100415.75;;;8.40;56.86
5651;BME280;40241;52.684;9.758;2024-03-23T10:57:41;100410.78;;;8.28;57.14
5651;BME280;40241;52.684;9.758;2024-03-23T11:00:09;100427.09;;;8.20;57.62
5651;BME280;40241;52.684;9.758;2024-03-23T11:02:35;100415.81;;;8.13;57.62
5651;BME280;40241;52.684;9.758;2024-03-23T11:05:01;100410.28;;;8.13;57.98
5651;BME280;40241;52.684;9.758;2024-03-23T11:09:52;100397.53;;;8.26;58.16
5651;BME280;40241;52.684;9.758;2024-03-23T11:12:25;100393.97;;;8.37;57.94
5651;BME280;40241;52.684;9.758;2024-03-23T11:14:53;100385.88;;;8.56;58.07
5651;BME280;40241;52.684;9.758;2024-03-23T11:17:20;100383.97;;;8.86;58.38
5651;BME280;40241;52.684;9.758;2024-03-23T11:27:40;100368.22;;;9.75;57.42
5651;BME280;40241;52.684;9.758;2024-03-23T11:30:25;100360.53;;;10.11;56.39
5651;BME280;40241;52.684;9.758;2024-03-23T11:32:55;100352.59;;;10.45;56.47
5651;BME280;40241;52.684;9.758;2024-03-23T11:35:25;100354.75;;;10.70;56.03
5651;BME280;40241;52.684;9.758;2024-03-23T11:38:03;100354.47;;;10.93;55.47
5651;BME280;40241;52.684;9.758;2024-03-23T11:40:29;100364.50;;;10.96;55.77
5651;BME280;40241;52.684;9.758;2024-03-23T11:43:05;100367.47;;;10.79;53.97
5651;BME280;40241;52.684;9.758;2024-03-23T11:45:57;100372.09;;;10.34;54.02
5651;BME280;40241;52.684;9.758;2024-03-23T11:48:23;100368.59;;;10.09;55.77
5651;BME280;40241;52.684;9.758;2024-03-23T11:50:50;100368.66;;;9.79;55.59
5651;BME280;40241;52.684;9.758;2024-03-23T11:53:18;100356.66;;;9.47;56.05
5651;BME280;40241;52.684;9.758;2024-03-23T11:55:56;100349.09;;;9.18;55.79
5651;BME280;40241;52.684;9.758;2024-03-23T11:58:23;100350.94;;;9.10;56.72
5651;BME280;40241;52.684;9.758;2024-03-23T12:00:57;100347.41;;;9.09;57.13
5651;BME280;40241;52.684;9.758;2024-03-23T12:03:24;100344.06;;;9.22;57.45
5651;BME280;40241;52.684;9.758;2024-03-23T12:05:54;100325.56;;;9.41;57.36
5651;BME280;40241;52.684;9.758;2024-03-23T12:10:53;100321.38;;;10.07;56.53
5651;BME280;40241;52.684;9.758;2024-03-23T12:13:29;100320.56;;;10.12;56.18
5651;BME280;40241;52.684;9.758;2024-03-23T12:15:54;100321.91;;;10.06;56.02
5651;BME280;40241;52.684;9.758;2024-03-23T12:18:23;100334.75;;;10.22;56.03
5651;BME280;40241;52.684;9.758;2024-03-23T12:20:49;100322.69;;;10.62;55.99
5651;BME280;40241;52.684;9.758;2024-03-23T12:23:15;100319.97;;;10.94;55.23
5651;BME280;40241;52.684;9.758;2024-03-23T12:25:40;100324.16;;;11.00;54.96
5651;BME280;40241;52.684;9.758;2024-03-23T12:28:06;100317.22;;;11.38;53.14
5651;BME280;40241;52.684;9.758;2024-03-23T12:30:41;100314.34;;;11.44;53.46
5651;BME280;40241;52.684;9.758;2024-03-23T12:33:07;100312.66;;;11.54;53.88
5651;BME280;40241;52.684;9.758;2024-03-23T12:35:32;100323.00;;;11.67;53.93
5651;BME280;40241;52.684;9.758;2024-03-23T12:37:58;100311.16;;;11.79;53.85
5651;BME280;40241;52.684;9.758;2024-03-23T12:40:23;100318.34;;;12.01;53.75
5651;BME280;40241;52.684;9.758;2024-03-23T12:42:49;100313.34;;;11.99;53.08
5651;BME280;40241;52.684;9.758;2024-03-23T12:45:15;100310.88;;;12.09;53.33
5651;BME280;40241;52.684;9.758;2024-03-23T12:47:40;100307.66;;;12.18;53.20
5651;BME280;40241;52.684;9.758;2024-03-23T12:50:06;100313.91;;;12.32;53.08
5651;BME280;40241;52.684;9.758;2024-03-23T12:52:32;100313.09;;;12.23;52.72
5651;BME280;40241;52.684;9.758;2024-03-23T12:54:58;100314.25;;;12.28;52.98
5651;BME280;40241;52.684;9.758;2024-03-23T12:57:24;100306.25;;;12.38;52.78
5651;BME280;40241;52.684;9.758;2024-03-23T12:59:53;100304.41;;;12.40;52.63
5651;BME280;40241;52.684;9.758;2024-03-23T13:02:21;100300.66;;;12.51;51.81
5651;BME280;40241;52.684;9.758;2024-03-23T13:04:49;100305.50;;;12.37;51.98
5651;BME280;40241;52.684;9.758;2024-03-23T13:07:15;100297.44;;;12.47;52.60
5651;BME280;40241;52.684;9.758;2024-03-23T13:09:41;100307.13;;;12.53;52.03
5651;BME280;40241;52.684;9.758;2024-03-23T13:12:06;100307.47;;;12.50;52.16
5651;BME280;40241;52.684;9.758;2024-03-23T13:14:32;100300.88;;;12.53;51.95
5651;BME280;40241;52.684;9.758;2024-03-23T13:16:58;100311.66;;;12.43;51.96
5651;BME280;40241;52.684;9.758;2024-03-23T13:19:23;100295.50;;;12.21;51.90
5651;BME280;40241;52.684;9.758;2024-03-23T13:21:55;100300.44;;;12.02;52.26
5651;BME280;40241;52.684;9.758;2024-03-23T13:24:23;100298.50;;;11.84;52.02
5651;BME280;40241;52.684;9.758;2024-03-23T13:26:52;100320.78;;;11.65;52.37
5651;BME280;40241;52.684;9.758;2024-03-23T13:29:18;100295.28;;;11.40;52.56
5651;BME280;40241;52.684;9.758;2024-03-23T13:31:45;100291.53;;;11.38;52.83
5651;BME280;40241;52.684;9.758;2024-03-23T13:34:10;100287.53;;;11.65;53.05
5651;BME280;40241;52.684;9.758;2024-03-23T13:36:36;100269.31;;;11.96;53.02
5651;BME280;40241;52.684;9.758;2024-03-23T13:39:03;100279.22;;;12.38;52.69
5651;BME280;40241;52.684;9.758;2024-03-23T13:41:32;100289.84;;;12.60;51.97
5651;BME280;40241;52.684;9.758;2024-03-23T13:43:58;100280.81;;;12.47;51.58
5651;BME280;40241;52.684;9.758;2024-03-23T13:46:23;100278.00;;;12.26;51.35
5651;BME280;40241;52.684;9.758;2024-03-23T13:48:49;100276.53;;;12.12;51.42
5651;BME280;40241;52.684;9.758;2024-03-23T13:51:14;100304.16;;;11.91;51.67
5651;BME280;40241;52.684;9.758;2024-03-23T13:53:39;100301.59;;;11.67;51.51
5651;BME280;40241;52.684;9.758;2024-03-23T13:56:05;100301.88;;;11.37;51.59
5651;BME280;40241;52.684;9.758;2024-03-23T13:58:30;100311.84;;;11.14;51.69
5651;BME280;40241;52.684;9.758;2024-03-23T14:00:58;100320.06;;;10.88;51.79
5651;BME280;40241;52.684;9.758;2024-03-23T14:03:24;100318.19;;;10.77;51.40
5651;BME280;40241;52.684;9.758;2024-03-23T14:05:49;100312.06;;;10.85;51.98
5651;BME280;40241;52.684;9.758;2024-03-23T14:08:14;100309.91;;;11.09;51.59
5651;BME280;40241;52.684;9.758;2024-03-23T14:10:42;100306.13;;;11.25;51.30